Time;durP1;ratioP1;P1;durP2;ratioP2;P2;SDS_P1;SDS_P2;PMS_P1;PMS_P2;Temp;Humidity;BMP_temperature;BMP_pressure;BME280_temperature;BME280_humidity;BME280_pressure;Samples;Min_cycle;Max_cycle;Signal;HPM_P1;HPM_P2
2023/06/28 00:00:09;;;;;;;1.73;0.70;;;21.70;99.90;;;21.98;50.41;101453.50;4990310;27;97072;-50
2023/06/28 00:06:19;;;;;;;1.13;0.50;;;21.60;99.90;;;21.91;49.83;101457.59;4997169;27;100536;-53
2023/06/28 00:08:46;;;;;;;3.20;0.67;;;21.50;99.90;;;21.90;49.62;101455.88;5000016;27;101718;-53
2023/06/28 00:11:12;;;;;;;3.83;1.07;;;21.50;99.90;;;21.85;49.40;101456.22;4984834;27;97805;-55
2023/06/28 00:13:38;;;;;;;2.87;0.63;;;21.50;99.90;;;21.82;49.53;101463.59;5001161;27;101183;-54
2023/06/28 00:16:04;;;;;;;3.00;0.80;;;21.40;99.90;;;21.72;49.93;101457.19;4999855;27;96966;-53
2023/06/28 00:18:30;;;;;;;1.37;0.67;;;21.30;99.90;;;21.71;50.31;101460.84;4995742;27;97521;-54
2023/06/28 00:20:56;;;;;;;0.53;0.40;;;21.30;99.90;;;21.71;50.06;101456.31;4985470;27;97143;-55
2023/06/28 00:23:22;;;;;;;2.83;0.77;;;21.30;99.90;;;21.69;50.81;101459.09;4983994;27;97315;-51
2023/06/28 00:25:48;;;;;;;1.30;0.80;;;21.30;99.90;;;21.67;49.52;101466.38;4994661;27;112941;-54
2023/06/28 00:28:14;;;;;;;1.33;0.80;;;21.30;99.90;;;21.68;50.08;101468.09;4988192;27;97459;-55
2023/06/28 00:30:40;;;;;;;3.43;0.80;;;21.30;99.90;;;21.69;49.25;101464.44;4990322;27;97412;-55
2023/06/28 00:33:05;;;;;;;2.93;0.60;;;21.30;99.90;;;21.69;48.97;101467.13;4994563;27;106853;-56
2023/06/28 00:35:31;;;;;;;3.37;0.53;;;21.30;99.90;;;21.65;49.42;101462.09;4994136;27;107903;-52
2023/06/28 00:37:57;;;;;;;3.30;0.60;;;21.20;99.90;;;21.64;49.14;101468.44;5001912;27;97308;-55
2023/06/28 00:40:23;;;;;;;0.90;0.57;;;21.20;99.90;;;21.65;50.07;101472.84;4995418;27;97608;-54
2023/06/28 00:42:49;;;;;;;0.80;0.50;;;21.20;99.90;;;21.61;49.22;101472.19;4990796;27;97668;-54
2023/06/28 00:45:15;;;;;;;1.57;0.70;;;21.20;99.90;;;21.61;50.26;101477.56;4994737;27;107590;-57
2023/06/28 00:47:42;;;;;;;0.57;0.50;;;21.20;99.90;;;21.61;49.58;101482.94;4999037;27;97486;-53
2023/06/28 00:50:09;;;;;;;4.27;0.73;;;21.20;99.90;;;21.60;49.61;101483.91;4981871;28;97433;-54
2023/06/28 00:52:36;;;;;;;1.70;0.80;;;21.20;99.90;;;21.61;50.10;101482.94;4988212;27;104422;-54
2023/06/28 00:55:02;;;;;;;2.10;0.53;;;21.20;99.90;;;21.64;49.97;101488.09;4988202;27;97435;-54
2023/06/28 00:57:27;;;;;;;0.97;0.57;;;21.20;99.90;;;21.66;51.04;101472.72;4984684;27;97421;-54
2023/06/28 00:59:55;;;;;;;1.57;0.70;;;21.30;99.90;;;21.67;50.45;101474.44;4977153;27;106208;-54
2023/06/28 01:02:21;;;;;;;2.37;0.90;;;21.30;99.90;;;21.66;49.58;101480.78;4970953;27;107087;-56
2023/06/28 01:04:48;;;;;;;1.50;0.70;;;21.30;99.90;;;21.66;49.20;101471.88;5011078;27;97194;-54
2023/06/28 01:07:14;;;;;;;2.10;0.70;;;21.20;99.90;;;21.69;51.01;101477.88;4989021;27;97582;-52
2023/06/28 01:09:40;;;;;;;0.43;0.27;;;21.30;99.90;;;21.68;49.91;101478.00;4981716;27;97641;-55
2023/06/28 01:12:07;;;;;;;1.50;0.70;;;21.30;99.90;;;21.69;49.98;101480.56;4976167;27;97698;-54
2023/06/28 01:14:33;;;;;;;1.87;0.70;;;21.30;99.90;;;21.65;50.68;101479.06;4991914;27;98098;-54
2023/06/28 01:16:59;;;;;;;1.77;0.70;;;21.30;99.90;;;21.66;49.69;101486.16;4988675;27;104096;-56
2023/06/28 01:19:27;;;;;;;4.23;0.80;;;21.30;99.90;;;21.65;50.64;101484.44;4977804;27;97591;-54
2023/06/28 01:21:58;;;;;;;0.70;0.60;;;21.20;99.90;;;21.66;50.43;101485.28;4983427;27;97134;-53
2023/06/28 01:24:25;;;;;;;1.60;0.70;;;21.20;99.90;;;21.64;50.60;101477.34;4987587;27;102460;-55
2023/06/28 01:26:52;;;;;;;1.83;0.87;;;21.20;99.90;;;21.61;49.92;101482.94;4983340;27;98319;-61
2023/06/28 01:29:24;;;;;;;0.50;0.50;;;21.20;99.90;;;21.56;49.99;101478.88;4983869;27;97625;-56
2023/06/28 01:31:55;;;;;;;1.20;0.73;;;21.10;99.90;;;21.44;50.00;101487.75;4978532;27;96998;-55
2023/06/28 01:34:29;;;;;;;3.97;0.83;;;20.90;99.90;;;21.39;50.77;101494.25;4992293;27;100355;-56
2023/06/28 01:36:58;;;;;;;2.63;0.80;;;20.90;99.90;;;21.42;50.90;101477.13;4970745;27;102172;-55
2023/06/28 01:39:25;;;;;;;2.03;0.90;;;20.90;99.90;;;21.45;51.83;101487.63;4972419;27;97333;-55
2023/06/28 01:41:52;;;;;;;2.20;0.50;;;20.90;99.90;;;21.43;50.56;101480.66;4986925;27;97586;-54
2023/06/28 01:44:18;;;;;;;4.20;0.80;;;20.90;99.90;;;21.43;50.82;101480.66;4998930;27;97506;-52
2023/06/28 01:46:44;;;;;;;0.90;0.60;;;20.90;99.90;;;21.39;51.37;101493.41;4985262;27;97270;-52
2023/06/28 01:49:10;;;;;;;2.23;0.73;;;20.90;99.90;;;21.34;50.97;101492.88;4986347;27;98017;-55
2023/06/28 01:51:36;;;;;;;2.20;0.90;;;20.80;99.90;;;21.27;51.07;101486.22;4979361;27;96747;-53
2023/06/28 01:54:03;;;;;;;5.10;0.90;;;20.70;99.90;;;21.17;51.41;101487.75;4980755;27;97369;-54
2023/06/28 01:56:29;;;;;;;3.47;0.80;;;20.60;99.90;;;21.14;51.49;101479.91;4982820;27;97629;-55
2023/06/28 01:58:55;;;;;;;0.97;0.70;;;20.50;99.90;;;21.07;52.24;101485.66;4991122;27;97476;-53
2023/06/28 02:01:21;;;;;;;2.20;0.70;;;20.50;99.90;;;21.05;52.30;101484.91;4989420;27;109599;-54
2023/06/28 02:03:47;;;;;;;2.13;0.73;;;20.50;99.90;;;21.04;52.62;101483.19;4981316;27;98016;-55
2023/06/28 02:06:14;;;;;;;2.60;1.00;;;20.50;99.90;;;20.99;52.74;101489.84;4985078;27;97574;-55
2023/06/28 02:08:40;;;;;;;1.27;0.70;;;20.40;99.90;;;21.00;52.92;101488.88;4987670;27;97049;-55
2023/06/28 02:11:06;;;;;;;1.70;0.80;;;20.40;99.90;;;20.98;52.79;101488.97;4978425;27;97540;-55
2023/06/28 02:13:32;;;;;;;1.37;0.93;;;20.40;99.90;;;20.92;52.55;101491.19;4985816;27;97513;-54
2023/06/28 02:15:58;;;;;;;0.70;0.63;;;20.40;99.90;;;20.86;52.74;101484.41;5000386;27;99276;-52
2023/06/28 02:18:26;;;;;;;3.27;0.83;;;20.30;99.90;;;20.83;52.96;101490.00;5002399;27;97229;-54
2023/06/28 02:20:52;;;;;;;1.57;0.73;;;20.20;99.90;;;20.79;53.46;101493.81;4992407;27;97270;-51
2023/06/28 02:23:21;;;;;;;2.60;0.80;;;20.20;99.90;;;20.83;53.68;101481.06;5023802;27;97660;-55
2023/06/28 02:25:46;;;;;;;0.80;0.67;;;20.20;99.90;;;20.86;53.70;101489.78;4995716;27;99718;-53
2023/06/28 02:28:12;;;;;;;1.87;0.80;;;20.30;99.90;;;20.86;53.25;101483.56;4982027;27;97311;-55
2023/06/28 02:30:38;;;;;;;2.67;0.83;;;20.30;99.90;;;20.87;53.40;101485.28;4986517;27;97097;-56
2023/06/28 02:33:04;;;;;;;3.37;1.23;;;20.30;99.90;;;20.84;53.49;101475.63;4992263;27;97232;-55
2023/06/28 02:35:31;;;;;;;1.60;0.90;;;20.20;99.90;;;20.82;53.63;101482.03;4994442;27;97929;-55
2023/06/28 02:37:56;;;;;;;2.87;0.90;;;20.20;99.90;;;20.78;53.70;101489.41;4992833;27;97398;-53
2023/06/28 02:40:24;;;;;;;2.53;0.80;;;20.20;99.90;;;20.72;53.68;101481.78;4982852;27;112560;-54
2023/06/28 02:42:50;;;;;;;3.50;0.80;;;20.10;99.90;;;20.66;54.07;101487.53;4989121;27;102458;-54
2023/06/28 02:45:16;;;;;;;4.60;0.80;;;20.10;99.90;;;20.63;53.92;101487.72;4985736;27;97058;-53
2023/06/28 02:47:42;;;;;;;1.10;0.67;;;20.00;99.90;;;20.57;54.31;101483.63;4981809;27;108020;-54
2023/06/28 02:50:08;;;;;;;1.50;0.87;;;20.00;99.90;;;20.56;54.29;101486.41;4993707;27;97535;-53
2023/06/28 02:52:34;;;;;;;2.47;0.90;;;20.00;99.90;;;20.55;54.65;101482.03;4984716;27;99329;-55
2023/06/28 02:54:59;;;;;;;2.73;0.80;;;19.90;99.90;;;20.49;54.64;101481.44;4991493;27;97312;-59
2023/06/28 02:57:26;;;;;;;4.53;1.10;;;19.90;99.90;;;20.53;55.18;101478.56;5009785;27;97642;-54
2023/06/28 02:59:52;;;;;;;3.33;1.10;;;19.90;99.90;;;20.54;54.81;101477.59;5000504;27;97645;-53
2023/06/28 03:02:18;;;;;;;3.07;0.97;;;19.90;99.90;;;20.50;54.80;101477.78;4979559;27;97867;-51
2023/06/28 03:04:44;;;;;;;5.47;1.40;;;19.90;99.90;;;20.49;55.01;101478.75;4988730;27;106777;-53
2023/06/28 03:07:14;;;;;;;1.33;1.03;;;19.90;99.90;;;20.47;54.85;101472.63;4989819;27;97531;-55
2023/06/28 03:09:41;;;;;;;1.73;1.10;;;19.90;99.90;;;20.43;54.82;101475.63;4991792;27;96881;-55
2023/06/28 03:12:07;;;;;;;1.80;0.83;;;19.80;99.90;;;20.41;55.31;101475.72;4978521;27;97526;-54
2023/06/28 03:14:34;;;;;;;3.17;0.70;;;19.80;99.90;;;20.42;55.33;101472.09;4985042;27;97567;-55
2023/06/28 03:17:00;;;;;;;4.17;1.43;;;19.80;99.90;;;20.43;55.18;101465.75;4996043;27;97409;-54
2023/06/28 03:19:26;;;;;;;4.63;0.97;;;19.80;99.90;;;20.43;55.41;101476.47;4982599;27;116247;-52
2023/06/28 03:21:51;;;;;;;1.87;0.80;;;19.80;99.90;;;20.43;55.47;101465.75;4990780;27;98625;-54
2023/06/28 03:24:17;;;;;;;1.90;1.00;;;19.80;99.90;;;20.46;55.53;101470.91;4993259;27;110785;-55
2023/06/28 03:26:43;;;;;;;1.27;0.60;;;19.80;99.90;;;20.46;54.98;101476.28;4994011;27;99619;-54
2023/06/28 03:29:09;;;;;;;1.33;0.97;;;19.90;99.90;;;20.46;55.49;101468.25;4995338;27;97498;-55
2023/06/28 03:31:35;;;;;;;3.47;0.80;;;19.90;99.90;;;20.47;55.32;101459.25;4976416;27;97980;-55
2023/06/28 03:34:00;;;;;;;2.23;1.07;;;19.90;99.90;;;20.47;55.47;101464.59;4978832;27;117483;-54
2023/06/28 03:36:29;;;;;;;1.07;0.63;;;19.90;99.90;;;20.49;55.43;101461.81;4975498;27;101932;-55
2023/06/28 03:38:55;;;;;;;1.03;0.70;;;19.90;99.90;;;20.53;55.45;101470.50;4994452;27;97580;-53
2023/06/28 03:41:21;;;;;;;0.80;0.70;;;19.90;99.90;;;20.48;55.48;101466.31;4980054;27;118180;-55
2023/06/28 03:43:47;;;;;;;1.90;0.70;;;19.90;99.90;;;20.48;55.44;101469.00;4996415;27;117586;-55
2023/06/28 03:46:14;;;;;;;3.03;1.00;;;19.90;99.90;;;20.46;55.46;101465.56;4985704;27;97078;-54
2023/06/28 03:48:40;;;;;;;2.67;1.10;;;19.80;99.90;;;20.46;55.58;101465.56;4998668;27;97378;-56
2023/06/28 03:51:05;;;;;;;1.70;0.80;;;19.90;99.90;;;20.46;55.65;101467.38;4987294;27;113112;-52
2023/06/28 03:53:31;;;;;;;1.63;0.80;;;19.90;99.90;;;20.44;55.91;101474.66;4987452;27;102652;-60
2023/06/28 03:55:57;;;;;;;2.37;0.80;;;19.90;99.90;;;20.40;56.04;101465.06;4987180;27;97494;-56
2023/06/28 03:58:23;;;;;;;0.70;0.70;;;19.80;99.90;;;20.36;56.34;101467.06;4996753;27;97135;-53
2023/06/28 04:00:49;;;;;;;1.07;0.70;;;19.80;99.90;;;20.35;56.46;101465.34;4983282;27;109251;-56
2023/06/28 04:03:15;;;;;;;1.13;0.70;;;19.80;99.90;;;20.33;56.32;101464.59;4972073;27;97873;-55
2023/06/28 04:05:42;;;;;;;2.37;0.80;;;19.80;99.90;;;20.31;56.42;101461.16;4984043;27;102732;-54
2023/06/28 04:08:08;;;;;;;0.90;0.63;;;19.70;99.90;;;20.32;56.54;101468.22;4996036;27;97103;-56
2023/06/28 04:10:37;;;;;;;2.07;1.10;;;19.70;99.90;;;20.33;56.74;101463.72;4990001;27;99586;-57
2023/06/28 04:13:03;;;;;;;2.53;1.30;;;19.80;99.90;;;20.32;56.75;101462.88;5002628;27;97182;-56
2023/06/28 04:15:28;;;;;;;2.60;0.90;;;19.80;99.90;;;20.36;56.66;101466.19;5001330;27;103351;-54
2023/06/28 04:17:54;;;;;;;1.37;0.80;;;19.80;99.90;;;20.36;56.78;101468.88;4997255;27;106349;-53
2023/06/28 04:20:20;;;;;;;4.73;1.30;;;19.80;99.90;;;20.37;57.09;101471.47;4993035;27;107933;-55
2023/06/28 04:22:46;;;;;;;1.30;0.90;;;19.80;99.90;;;20.36;56.76;101464.38;4979545;27;96947;-54
2023/06/28 04:25:12;;;;;;;2.50;1.30;;;19.80;99.90;;;20.39;56.93;101466.84;4993598;27;97225;-54
2023/06/28 04:27:37;;;;;;;1.57;1.10;;;19.90;99.90;;;20.40;56.81;101465.94;4999492;27;97551;-55
2023/06/28 04:30:04;;;;;;;3.53;1.03;;;19.90;99.90;;;20.43;56.81;101462.22;4995230;27;98331;-56
2023/06/28 04:32:30;;;;;;;3.20;1.30;;;19.80;99.90;;;20.46;56.80;101470.06;5001140;27;97533;-55
2023/06/28 04:34:58;;;;;;;2.93;1.30;;;19.90;99.90;;;20.47;56.77;101464.59;5003836;27;96759;-54
2023/06/28 04:37:27;;;;;;;4.30;1.90;;;19.90;99.90;;;20.53;56.78;101467.84;5000326;27;96782;-55
2023/06/28 04:40:01;;;;;;;3.00;1.40;;;20.00;99.90;;;20.52;56.30;101469.66;4988799;27;103179;-55
2023/06/28 04:42:26;;;;;;;1.70;1.00;;;20.00;99.90;;;20.54;56.67;101472.22;4999897;27;101710;-56
2023/06/28 04:44:59;;;;;;;0.80;0.70;;;20.00;99.90;;;20.55;56.66;101463.25;5003189;27;97321;-55
2023/06/28 04:47:27;;;;;;;5.30;1.20;;;20.00;99.90;;;20.58;56.57;101473.78;5002029;27;97324;-55
2023/06/28 04:49:54;;;;;;;2.10;0.80;;;20.00;99.90;;;20.60;56.62;101466.50;4985038;27;101155;-55
2023/06/28 04:52:21;;;;;;;3.07;1.20;;;20.10;99.90;;;20.63;55.97;101471.66;4981267;27;107086;-54
2023/06/28 04:54:48;;;;;;;2.30;0.90;;;20.10;99.90;;;20.65;56.01;101467.03;4984832;27;97438;-55
2023/06/28 04:57:20;;;;;;;2.53;1.00;;;20.10;99.90;;;20.71;55.79;101463.97;4975736;27;97661;-55
2023/06/28 04:59:46;;;;;;;2.27;1.20;;;20.20;99.90;;;20.75;55.08;101466.34;4972095;27;97094;-55
2023/06/28 05:02:12;;;;;;;4.50;1.20;;;20.30;99.90;;;20.77;54.02;101463.56;4980180;27;98624;-56
2023/06/28 05:04:39;;;;;;;2.17;1.30;;;20.30;99.90;;;20.77;54.72;101466.25;4976598;27;97099;-55
2023/06/28 05:07:07;;;;;;;6.93;1.20;;;20.30;99.90;;;20.78;54.44;101465.28;4976339;27;97485;-53
2023/06/28 05:09:35;;;;;;;4.00;1.03;;;20.30;99.90;;;20.76;54.88;101467.22;4973315;27;98812;-54
2023/06/28 05:12:02;;;;;;;2.57;0.80;;;20.30;99.90;;;20.83;53.79;101463.19;4982281;27;97768;-55
2023/06/28 05:14:30;;;;;;;3.80;0.87;;;20.30;99.90;;;20.88;53.14;101461.03;4994330;27;97370;-53
2023/06/28 05:16:56;;;;;;;3.17;0.93;;;20.40;99.90;;;20.92;53.07;101456.31;4986510;27;97335;-55
2023/06/28 05:19:23;;;;;;;1.80;1.00;;;20.40;99.90;;;20.95;53.75;101458.81;4982471;27;97776;-54
2023/06/28 05:21:49;;;;;;;1.53;1.00;;;20.50;99.90;;;20.97;52.43;101460.41;4974768;27;98408;-54
2023/06/28 05:24:17;;;;;;;0.53;0.53;;;20.50;99.90;;;21.00;51.76;101465.59;4979966;27;97512;-55
2023/06/28 05:26:43;;;;;;;2.07;0.97;;;20.60;99.90;;;21.05;53.37;101462.59;4983736;27;97080;-53
2023/06/28 05:29:09;;;;;;;3.43;1.23;;;20.60;99.90;;;21.10;52.46;101468.50;4999143;27;97409;-54
2023/06/28 05:31:42;;;;;;;5.03;0.77;;;20.60;99.90;;;21.18;53.60;101468.88;4977810;27;97493;-55
2023/06/28 05:34:07;;;;;;;4.40;0.90;;;20.80;99.90;;;21.23;52.47;101465.84;4975836;27;96917;-54
2023/06/28 05:36:33;;;;;;;2.07;1.00;;;20.90;99.90;;;21.28;51.97;101466.47;4983646;27;104413;-56
2023/06/28 05:38:59;;;;;;;1.93;0.60;;;20.90;99.90;;;21.29;51.53;101470.88;4995551;27;97600;-56
2023/06/28 05:41:25;;;;;;;4.20;1.00;;;20.90;99.90;;;21.32;52.38;101471.50;4977240;27;107425;-55
2023/06/28 05:43:51;;;;;;;4.47;0.90;;;20.90;99.90;;;21.33;51.13;101469.69;4992952;27;97232;-54
2023/06/28 05:46:17;;;;;;;1.47;0.70;;;20.90;99.90;;;21.33;50.20;101472.38;5004807;27;97508;-53
2023/06/28 05:48:43;;;;;;;1.50;0.60;;;20.90;99.90;;;21.32;51.85;101467.97;4998606;27;97008;-55
2023/06/28 05:51:14;;;;;;;1.60;0.60;;;20.90;99.90;;;21.34;52.58;101463.34;4994378;27;98961;-55
2023/06/28 05:53:40;;;;;;;1.80;0.80;;;20.90;99.90;;;21.36;51.51;101467.66;4989437;27;97118;-55
2023/06/28 05:56:07;;;;;;;3.83;0.83;;;20.90;99.90;;;21.39;52.95;101470.13;4984966;27;96879;-54
2023/06/28 05:58:33;;;;;;;1.77;0.80;;;21.00;99.90;;;21.42;52.51;101471.75;4990112;27;97751;-54
2023/06/28 06:01:00;;;;;;;2.73;0.80;;;21.10;99.90;;;21.44;52.25;101472.50;4998894;27;126411;-55
2023/06/28 06:03:26;;;;;;;2.13;1.10;;;21.10;99.90;;;21.44;51.31;101474.34;4991631;27;97410;-54
2023/06/28 06:05:53;;;;;;;0.67;0.67;;;21.00;99.90;;;21.43;52.19;101475.28;4997190;27;97086;-54
2023/06/28 06:08:19;;;;;;;2.63;0.70;;;21.00;99.90;;;21.44;52.09;101464.44;4983570;27;98092;-53
2023/06/28 06:10:45;;;;;;;1.93;0.80;;;21.00;99.90;;;21.42;50.88;101474.44;4989111;27;98022;-54
2023/06/28 06:13:12;;;;;;;1.70;0.73;;;21.00;99.90;;;21.42;51.51;101471.75;5002562;27;103257;-55
2023/06/28 06:15:38;;;;;;;1.10;0.50;;;21.00;99.90;;;21.39;49.62;101463.88;4993255;27;97584;-56
2023/06/28 06:18:03;;;;;;;5.90;1.20;;;21.00;99.90;;;21.36;49.26;101466.78;4994670;27;97734;-54
2023/06/28 06:20:31;;;;;;;3.57;0.63;;;20.90;99.90;;;21.39;52.65;101464.75;4979857;27;99713;-53
2023/06/28 06:22:57;;;;;;;1.23;0.67;;;21.00;99.90;;;21.43;52.79;101462.72;5001647;27;96945;-59
2023/06/28 06:25:23;;;;;;;1.37;0.63;;;21.00;99.90;;;21.48;52.11;101460.59;4971406;28;97403;-55
2023/06/28 06:27:49;;;;;;;1.20;0.40;;;21.10;99.90;;;21.52;51.74;101459.41;5004261;27;128311;-54
2023/06/28 06:30:14;;;;;;;1.77;0.70;;;21.20;99.90;;;21.54;51.75;101459.28;4964629;27;97759;-52
2023/06/28 06:32:40;;;;;;;0.70;0.60;;;21.20;99.90;;;21.58;51.56;101464.38;4985404;27;97303;-57
2023/06/28 06:35:07;;;;;;;2.70;0.83;;;21.30;99.90;;;21.62;51.49;101463.19;4995381;27;97307;-57
2023/06/28 06:37:33;;;;;;;2.00;0.80;;;21.30;99.90;;;21.66;52.17;101464.69;4999053;27;97515;-55
2023/06/28 06:39:58;;;;;;;2.00;0.57;;;21.40;99.90;;;21.71;51.49;101458.16;4977617;27;123672;-52
2023/06/28 06:42:24;;;;;;;3.53;0.80;;;21.50;99.90;;;21.71;51.10;101463.53;4977891;27;101061;-54
2023/06/28 06:44:50;;;;;;;1.83;0.43;;;21.40;99.90;;;21.71;49.59;101475.13;4994881;27;97526;-54
2023/06/28 06:47:16;;;;;;;1.83;0.70;;;21.40;99.90;;;21.73;51.96;101469.63;4998694;27;116192;-53
2023/06/28 06:49:41;;;;;;;0.50;0.47;;;21.40;99.90;;;21.75;51.20;101468.56;4986039;27;97524;-53
2023/06/28 06:52:07;;;;;;;0.83;0.60;;;21.50;99.90;;;21.78;50.75;101472.84;4972368;27;105570;-54
2023/06/28 06:54:33;;;;;;;2.10;0.90;;;21.50;99.90;;;21.82;51.50;101468.97;5000403;27;97196;-56
2023/06/28 06:56:59;;;;;;;0.93;0.70;;;21.60;99.90;;;21.85;50.01;101464.28;4989631;27;98548;-56
2023/06/28 06:59:26;;;;;;;2.67;0.70;;;21.60;99.90;;;21.85;49.67;101463.41;4971259;27;97431;-53
2023/06/28 07:01:52;;;;;;;1.60;0.57;;;21.60;99.90;;;21.86;50.79;101475.88;4992522;27;97311;-55
2023/06/28 07:04:21;;;;;;;0.83;0.50;;;21.60;99.90;;;21.88;51.33;101474.78;4993583;27;97420;-54
2023/06/28 07:06:47;;;;;;;0.60;0.43;;;21.60;99.90;;;21.87;51.39;101477.59;4990366;27;98108;-54
2023/06/28 07:09:18;;;;;;;0.70;0.47;;;21.60;99.90;;;21.84;51.58;101472.41;4984067;27;97129;-54
2023/06/28 07:11:45;;;;;;;1.00;0.50;;;21.50;99.90;;;21.83;49.77;101470.69;4997275;27;97530;-56
2023/06/28 07:14:11;;;;;;;3.07;0.67;;;21.50;99.90;;;21.85;50.70;101479.53;4995516;27;96991;-56
2023/06/28 07:16:37;;;;;;;1.40;0.70;;;21.50;99.90;;;21.89;50.68;101475.66;4979010;27;105646;-56
2023/06/28 07:19:05;;;;;;;1.83;0.70;;;21.60;99.90;;;21.89;51.18;101473.81;4982266;27;115051;-54
2023/06/28 07:21:31;;;;;;;3.50;0.80;;;21.60;99.90;;;21.91;51.32;101479.09;4987791;27;97313;-55
2023/06/28 07:23:56;;;;;;;1.40;0.70;;;21.70;99.90;;;21.93;50.99;101483.38;4990434;27;97187;-55
2023/06/28 07:26:22;;;;;;;5.10;0.70;;;21.70;99.90;;;21.95;50.67;101480.56;4984630;27;114991;-53
2023/06/28 07:28:50;;;;;;;1.23;0.73;;;21.80;99.90;;;21.96;50.61;101474.25;4981028;27;97504;-53
2023/06/28 07:31:16;;;;;;;0.83;0.77;;;21.70;99.90;;;21.95;48.43;101475.19;4983989;27;97570;-55
2023/06/28 07:33:42;;;;;;;1.17;0.60;;;21.70;99.90;;;21.95;50.79;101473.38;5003831;27;101748;-52
2023/06/28 07:36:08;;;;;;;0.77;0.50;;;21.70;99.90;;;21.96;50.00;101476.91;5002447;27;97247;-52
2023/06/28 07:38:34;;;;;;;1.03;0.73;;;21.70;99.90;;;21.95;50.79;101475.19;4987837;27;107715;-55
2023/06/28 07:41:00;;;;;;;3.37;1.00;;;21.70;99.90;;;21.95;51.26;101462.63;4990219;27;97229;-56
2023/06/28 07:43:26;;;;;;;1.33;0.67;;;21.70;99.90;;;21.96;50.91;101471.56;4982489;27;102322;-55
2023/06/28 07:45:53;;;;;;;1.50;0.73;;;21.70;99.90;;;21.90;47.85;101472.00;4982725;27;97500;-54
2023/06/28 07:48:22;;;;;;;1.57;0.67;;;21.70;99.90;;;21.90;51.32;101472.00;4977696;27;96980;-54
2023/06/28 07:50:48;;;;;;;2.80;0.80;;;21.60;99.90;;;21.90;48.28;101478.22;4993405;27;97178;-55
2023/06/28 07:53:14;;;;;;;0.67;0.50;;;21.70;99.90;;;21.94;51.05;101481.53;4995781;27;102745;-55
2023/06/28 07:55:40;;;;;;;4.00;1.03;;;21.70;99.90;;;21.94;50.79;101479.72;4996884;27;99019;-55
2023/06/28 07:58:05;;;;;;;1.10;0.77;;;21.70;99.90;;;21.95;50.26;101480.56;4984461;27;97375;-52
2023/06/28 08:00:31;;;;;;;1.07;0.83;;;21.70;99.90;;;21.91;48.18;101479.94;4983371;27;97415;-54
2023/06/28 08:02:58;;;;;;;3.57;0.97;;;21.60;99.90;;;21.88;49.13;101482.84;4997449;27;97117;-54
2023/06/28 08:05:25;;;;;;;5.40;1.00;;;21.60;99.90;;;21.86;49.36;101486.63;4999387;27;102264;-55
2023/06/28 08:07:54;;;;;;;4.57;1.10;;;21.60;99.90;;;21.85;50.35;101482.22;4993466;27;98284;-53
2023/06/28 08:10:20;;;;;;;2.83;0.90;;;21.60;99.90;;;21.85;50.11;101479.53;4990067;27;97123;-55
2023/06/28 08:12:46;;;;;;;1.83;0.93;;;21.60;99.90;;;21.88;50.92;101479.31;4995778;27;99005;-55
2023/06/28 08:15:12;;;;;;;2.53;1.00;;;21.60;99.90;;;21.87;49.13;101480.28;5000126;27;100679;-53
2023/06/28 08:17:38;;;;;;;3.23;0.70;;;21.60;99.90;;;21.85;48.32;101484.91;4994002;27;106794;-53
2023/06/28 08:20:05;;;;;;;1.40;0.53;;;21.60;99.90;;;21.86;46.90;101482.09;5001426;27;97472;-53
2023/06/28 08:22:30;;;;;;;2.53;0.70;;;21.60;99.90;;;21.92;49.39;101486.19;4993333;27;97532;-55
2023/06/28 08:24:56;;;;;;;0.70;0.60;;;21.70;99.90;;;21.93;49.45;101485.19;4994068;27;113551;-54
2023/06/28 08:27:22;;;;;;;3.23;0.60;;;21.70;99.90;;;21.93;47.93;101483.38;4990794;27;97480;-56
2023/06/28 08:29:48;;;;;;;1.67;0.70;;;21.70;99.90;;;21.96;50.35;101487.66;4984869;27;97176;-55
2023/06/28 08:32:14;;;;;;;1.80;0.50;;;21.70;99.90;;;21.99;50.42;101484.78;4993811;27;97208;-52
2023/06/28 08:34:40;;;;;;;1.50;0.70;;;21.80;99.90;;;22.00;49.31;101489.19;4994564;27;122107;-53
2023/06/28 08:37:06;;;;;;;0.40;0.40;;;21.80;99.90;;;22.03;50.04;101486.28;4980865;27;102713;-54
2023/06/28 08:39:32;;;;;;;0.80;0.40;;;21.80;99.90;;;22.02;49.64;101483.72;4977089;27;97495;-55
2023/06/28 08:42:00;;;;;;;5.23;0.90;;;21.80;99.90;;;22.00;47.30;101486.50;4976545;27;100090;-53
2023/06/28 08:44:32;;;;;;;4.17;0.77;;;21.80;99.90;;;22.01;49.73;101490.91;4977289;27;102003;-54
2023/06/28 08:46:59;;;;;;;1.47;0.93;;;21.80;99.90;;;22.03;50.53;101491.66;4998273;27;102469;-54
2023/06/28 08:49:30;;;;;;;0.77;0.60;;;21.80;99.90;;;22.04;49.08;101492.50;5000825;27;97537;-51
2023/06/28 08:51:57;;;;;;;2.90;0.70;;;21.80;99.90;;;22.04;49.37;101485.31;4990730;27;97353;-56
2023/06/28 08:54:27;;;;;;;0.87;0.57;;;21.80;99.90;;;22.03;47.73;101482.75;4980234;27;107480;-52
2023/06/28 08:56:58;;;;;;;1.57;0.77;;;21.80;99.90;;;22.03;50.08;101483.59;4986566;27;102033;-52
2023/06/28 08:59:24;;;;;;;3.93;0.77;;;21.80;99.90;;;22.04;50.25;101485.31;4986841;27;97492;-55
2023/06/28 09:01:54;;;;;;;3.40;0.83;;;21.80;99.90;;;22.04;49.26;101485.31;4977433;27;97040;-54
2023/06/28 09:04:29;;;;;;;0.70;0.50;;;21.90;99.90;;;22.08;50.50;101491.34;4995396;27;97772;-54
2023/06/28 09:06:56;;;;;;;0.90;0.60;;;21.90;99.90;;;22.05;47.21;101481.69;4993338;27;101329;-54
2023/06/28 09:09:23;;;;;;;1.10;0.40;;;21.80;99.90;;;22.04;49.86;101489.81;4980445;27;96996;-53
2023/06/28 09:11:50;;;;;;;2.10;0.60;;;21.80;99.90;;;22.05;49.88;101486.16;4976952;27;99045;-55
2023/06/28 09:14:15;;;;;;;1.50;0.60;;;21.80;99.90;;;22.04;48.99;101484.47;4987286;27;100821;-55
2023/06/28 09:16:41;;;;;;;1.20;0.80;;;21.80;99.90;;;22.04;49.42;101490.69;4981856;27;97412;-57
2023/06/28 09:19:07;;;;;;;1.13;0.50;;;21.80;99.90;;;22.08;50.65;101492.22;4978941;27;97517;-57
2023/06/28 09:21:34;;;;;;;1.27;0.50;;;21.80;99.90;;;22.09;49.62;101485.00;4986301;27;97462;-54
2023/06/28 09:24:00;;;;;;;3.00;0.70;;;21.90;99.90;;;22.07;49.55;101485.13;4978913;27;98100;-54
2023/06/28 09:26:30;;;;;;;1.90;0.70;;;21.80;99.90;;;22.09;50.66;101483.19;5000709;27;99627;-55
2023/06/28 09:29:00;;;;;;;0.67;0.40;;;21.90;99.90;;;22.09;48.61;101482.31;5014070;27;97570;-55
2023/06/28 09:31:32;;;;;;;0.50;0.40;;;21.80;99.90;;;22.03;48.69;101488.13;5002681;27;96910;-55
2023/06/28 09:33:57;;;;;;;1.07;0.73;;;21.80;99.90;;;22.04;49.10;101479.94;4997304;27;101628;-54
2023/06/28 09:36:23;;;;;;;2.07;1.07;;;21.80;99.90;;;22.07;48.20;101479.75;5008234;27;107637;-54
2023/06/28 09:38:49;;;;;;;1.60;1.10;;;21.80;99.90;;;22.06;47.34;101488.78;4996403;27;97495;-55
2023/06/28 09:41:15;;;;;;;2.03;0.90;;;21.80;99.90;;;22.07;50.24;101487.81;5000604;27;99853;-55
2023/06/28 09:43:41;;;;;;;2.53;0.97;;;21.90;99.90;;;22.09;50.49;101488.56;5006988;27;118674;-58
2023/06/28 09:46:15;;;;;;;0.60;0.40;;;21.90;99.90;;;22.13;50.56;101478.44;4981355;27;110016;-58
2023/06/28 09:48:48;;;;;;;2.97;1.00;;;21.90;99.90;;;22.13;46.82;101473.97;4999599;27;97534;-55
2023/06/28 09:51:18;;;;;;;3.07;1.53;;;21.90;99.90;;;22.08;46.40;101477.91;4990916;27;97810;-55
2023/06/28 09:53:56;;;;;;;1.07;0.70;;;21.80;99.90;;;22.12;50.34;101477.59;4993127;27;98027;-58
2023/06/28 09:56:36;;;;;;;2.50;0.60;;;21.90;99.90;;;22.16;48.40;101475.56;5002530;27;97436;-54
2023/06/28 09:59:08;;;;;;;1.53;0.60;;;22.00;99.90;;;22.19;47.95;101486.09;4983879;27;97087;-54
2023/06/28 10:01:39;;;;;;;2.00;1.03;;;22.00;99.90;;;22.19;49.70;101484.25;4997479;27;97596;-53
2023/06/28 10:04:11;;;;;;;0.87;0.57;;;22.00;99.90;;;22.19;48.61;101484.25;5001173;27;100632;-53
2023/06/28 10:06:41;;;;;;;1.10;0.70;;;22.00;99.90;;;22.15;48.92;101485.44;4995124;27;99662;-55
2023/06/28 10:09:07;;;;;;;1.67;0.50;;;21.90;99.90;;;22.15;48.90;101493.50;4977339;28;97349;-53
2023/06/28 10:11:37;;;;;;;1.73;0.70;;;22.00;99.90;;;22.17;50.67;101475.44;4995638;27;107764;-54